Time;durP1;ratioP1;P1;durP2;ratioP2;P2;SDS_P1;SDS_P2;PMS_P1;PMS_P2;Temp;Humidity;BMP_temperature;BMP_pressure;BME280_temperature;BME280_humidity;BME280_pressure;Samples;Min_cycle;Max_cycle;Signal;HPM_P1;HPM_P2
2023/09/14 00:00:21;;;;;;;4.82;1.55;;;14.00;99.90;;;;;;5033755;28;20029;-51
2023/09/14 00:02:47;;;;;;;8.75;2.10;;;14.00;99.90;;;;;;5033221;28;20063;-53
2023/09/14 00:05:14;;;;;;;7.28;1.77;;;14.00;99.90;;;;;;5033475;28;20033;-53
2023/09/14 00:07:40;;;;;;;3.80;1.42;;;14.10;99.90;;;;;;5016232;28;20041;-51
2023/09/14 00:10:06;;;;;;;4.32;1.40;;;14.00;99.90;;;;;;5032965;28;20029;-53
2023/09/14 00:12:32;;;;;;;4.38;1.60;;;14.00;99.90;;;;;;5015930;28;20057;-53
2023/09/14 00:14:57;;;;;;;6.85;1.90;;;14.00;99.90;;;;;;5033447;28;20386;-53
2023/09/14 00:17:23;;;;;;;4.75;1.60;;;13.90;99.90;;;;;;5033741;28;20025;-50
2023/09/14 00:19:48;;;;;;;7.18;1.58;;;13.90;99.90;;;;;;5033376;28;20095;-52
2023/09/14 00:22:14;;;;;;;4.53;1.52;;;14.00;99.90;;;;;;5033849;28;20026;-53
2023/09/14 00:24:40;;;;;;;3.30;1.50;;;14.00;99.90;;;;;;5033711;28;20038;-53
2023/09/14 00:27:05;;;;;;;4.65;1.52;;;14.00;99.90;;;;;;5033652;28;20033;-53
2023/09/14 00:29:31;;;;;;;4.35;1.52;;;14.00;99.90;;;;;;5015716;28;20390;-52
2023/09/14 00:31:56;;;;;;;6.85;1.90;;;14.00;99.90;;;;;;5015849;28;20087;-52
2023/09/14 00:34:22;;;;;;;5.35;1.67;;;13.90;99.90;;;;;;5015558;28;20017;-54
2023/09/14 00:36:47;;;;;;;5.43;1.75;;;14.00;99.90;;;;;;5015897;28;20393;-53
2023/09/14 00:39:13;;;;;;;3.35;1.55;;;14.00;99.90;;;;;;5032837;28;20112;-53
2023/09/14 00:41:39;;;;;;;2.95;1.52;;;13.90;99.90;;;;;;5015469;28;20466;-53
2023/09/14 00:44:05;;;;;;;5.22;1.73;;;13.90;99.90;;;;;;5015617;28;20030;-54
2023/09/14 00:46:30;;;;;;;3.85;1.70;;;13.80;99.90;;;;;;5033674;28;20040;-53
2023/09/14 00:48:57;;;;;;;4.88;2.05;;;13.80;99.90;;;;;;5032733;28;20045;-53
2023/09/14 00:51:24;;;;;;;3.03;1.45;;;13.70;99.90;;;;;;5015604;28;20470;-53
2023/09/14 00:53:50;;;;;;;5.43;1.92;;;13.70;99.90;;;;;;5033283;28;20406;-54
2023/09/14 00:56:18;;;;;;;6.15;1.70;;;13.70;99.90;;;;;;5016298;28;20029;-54
2023/09/14 00:58:44;;;;;;;5.00;2.15;;;13.70;99.90;;;;;;5018590;28;20033;-54
2023/09/14 01:01:10;;;;;;;3.47;1.48;;;13.70;99.90;;;;;;5019649;28;20091;-54
2023/09/14 01:03:36;;;;;;;4.10;1.55;;;13.70;99.90;;;;;;5037455;28;20037;-54
2023/09/14 01:06:02;;;;;;;5.35;1.73;;;13.60;99.90;;;;;;5037349;28;20068;-54
2023/09/14 01:08:28;;;;;;;4.32;1.70;;;13.60;99.90;;;;;;5036564;28;20025;-54
2023/09/14 01:10:54;;;;;;;8.23;1.85;;;13.60;99.90;;;;;;5037706;28;20358;-51
2023/09/14 01:13:43;;;;;;;5.82;1.80;;;13.60;99.90;;;;;;5037191;28;20033;-54
2023/09/14 01:16:29;;;;;;;4.88;1.67;;;13.60;99.90;;;;;;4983534;28;20033;-51
2023/09/14 01:19:09;;;;;;;6.18;1.70;;;13.60;99.90;;;;;;5019920;28;20029;-48
2023/09/14 01:21:59;;;;;;;3.88;1.63;;;13.50;99.90;;;;;;5019806;28;20036;-49
2023/09/14 01:24:43;;;;;;;6.55;1.73;;;13.60;99.90;;;;;;5019785;28;20102;-53
2023/09/14 01:27:09;;;;;;;5.60;2.17;;;13.50;99.90;;;;;;5019116;28;20049;-53
2023/09/14 01:29:35;;;;;;;4.38;1.92;;;13.50;99.90;;;;;;5019352;28;20080;-50
2023/09/14 01:32:00;;;;;;;6.47;2.03;;;13.50;99.90;;;;;;5037754;28;20089;-52
2023/09/14 01:34:27;;;;;;;4.85;1.80;;;13.50;99.90;;;;;;5020284;28;20126;-49
2023/09/14 01:36:56;;;;;;;9.93;2.00;;;13.50;99.90;;;;;;5019772;28;20029;-53
2023/09/14 01:39:25;;;;;;;4.80;2.03;;;13.50;99.90;;;;;;5019668;28;20084;-49
2023/09/14 01:41:55;;;;;;;3.60;1.70;;;13.50;99.90;;;;;;5020308;28;20029;-50
2023/09/14 01:44:25;;;;;;;5.07;1.92;;;13.50;99.90;;;;;;5020263;28;20120;-52
2023/09/14 01:46:51;;;;;;;4.80;2.10;;;13.40;99.90;;;;;;5037917;28;20478;-49
2023/09/14 01:49:17;;;;;;;5.15;1.88;;;13.40;99.90;;;;;;5019770;28;20112;-49
2023/09/14 01:51:43;;;;;;;5.75;1.52;;;13.50;99.90;;;;;;5019280;28;20146;-49
2023/09/14 01:54:08;;;;;;;4.38;1.80;;;13.50;99.90;;;;;;5019028;28;20030;-49
2023/09/14 01:56:34;;;;;;;6.30;1.70;;;13.40;99.90;;;;;;5018478;28;20034;-50
2023/09/14 01:59:00;;;;;;;5.68;2.00;;;13.50;99.90;;;;;;5018706;28;20033;-50
2023/09/14 02:01:26;;;;;;;5.63;1.95;;;13.50;99.90;;;;;;5018990;28;20026;-52
2023/09/14 02:03:51;;;;;;;4.72;1.52;;;13.60;99.90;;;;;;5019056;28;20029;-49
2023/09/14 02:06:17;;;;;;;3.88;1.67;;;13.60;99.90;;;;;;5037476;28;20026;-52
2023/09/14 02:08:43;;;;;;;3.78;1.63;;;13.60;99.90;;;;;;5017473;28;20504;-51
2023/09/14 02:11:09;;;;;;;6.72;1.90;;;13.60;99.90;;;;;;5017845;28;20029;-53
2023/09/14 02:13:37;;;;;;;3.95;1.60;;;13.70;99.90;;;;;;5034372;28;20045;-52
2023/09/14 02:16:03;;;;;;;4.25;1.80;;;13.70;99.90;;;;;;5018018;28;20519;-53
2023/09/14 02:18:29;;;;;;;6.07;2.33;;;13.70;99.90;;;;;;5017407;28;20044;-53
2023/09/14 02:20:55;;;;;;;6.20;1.98;;;13.70;99.90;;;;;;5018229;28;20142;-53
2023/09/14 02:23:20;;;;;;;8.95;1.85;;;13.70;99.90;;;;;;5039046;23;20043;-51
2023/09/14 02:25:46;;;;;;;5.63;1.75;;;13.70;99.90;;;;;;5034484;28;20048;-53
2023/09/14 02:28:13;;;;;;;3.97;1.40;;;13.70;99.90;;;;;;5060041;28;20025;-52
2023/09/14 02:30:39;;;;;;;5.45;1.58;;;13.70;99.90;;;;;;5072001;28;20421;-53
2023/09/14 02:33:09;;;;;;;5.18;1.73;;;13.70;99.90;;;;;;5072648;28;20096;-53
2023/09/14 02:35:35;;;;;;;;;;;13.70;99.90;;;;;;5055062;28;20029;-52
2023/09/14 02:38:00;;;;;;;4.95;1.90;;;13.70;99.90;;;;;;5053808;28;19958;-52
2023/09/14 02:40:26;;;;;;;5.50;2.03;;;13.70;99.90;;;;;;5054043;28;20036;-51
2023/09/14 02:42:52;;;;;;;7.22;1.83;;;13.60;99.90;;;;;;5072070;28;20028;-53
2023/09/14 02:45:17;;;;;;;4.75;1.52;;;13.60;99.90;;;;;;5054040;28;20040;-50
2023/09/14 02:47:43;;;;;;;5.60;2.05;;;13.50;99.90;;;;;;5053964;28;20043;-53
2023/09/14 02:50:09;;;;;;;5.38;1.88;;;13.50;99.90;;;;;;5053550;28;20067;-52
2023/09/14 02:52:34;;;;;;;5.07;1.83;;;13.40;99.90;;;;;;5053904;28;20024;-54
2023/09/14 02:55:00;;;;;;;4.45;1.60;;;13.30;99.90;;;;;;5053766;28;20052;-53
2023/09/14 02:57:25;;;;;;;4.53;2.10;;;13.30;99.90;;;;;;5053719;28;20472;-53
2023/09/14 02:59:55;;;;;;;5.70;1.55;;;13.30;99.90;;;;;;5036808;28;20116;-55
2023/09/14 03:02:24;;;;;;;4.75;1.67;;;13.40;99.90;;;;;;5053991;28;20476;-53
2023/09/14 03:04:50;;;;;;;9.88;1.85;;;13.40;99.90;;;;;;5071882;28;20104;-52
2023/09/14 03:07:16;;;;;;;4.70;1.83;;;13.50;99.90;;;;;;5053482;28;20090;-53
2023/09/14 03:09:42;;;;;;;5.43;1.77;;;13.50;99.90;;;;;;5053063;28;20081;-52
2023/09/14 03:12:09;;;;;;;7.10;2.28;;;13.50;99.90;;;;;;5053484;28;20029;-51
2023/09/14 03:14:34;;;;;;;5.28;1.90;;;13.50;99.90;;;;;;5071169;28;20546;-50
2023/09/14 03:17:00;;;;;;;3.17;1.60;;;13.60;99.90;;;;;;5053382;28;20025;-51
2023/09/14 03:19:26;;;;;;;5.22;1.75;;;13.50;99.90;;;;;;5052122;28;20492;-54
2023/09/14 03:21:52;;;;;;;5.30;1.90;;;13.50;99.90;;;;;;5053298;28;20040;-53
2023/09/14 03:24:18;;;;;;;8.25;2.28;;;13.50;99.90;;;;;;5053234;28;20117;-56
2023/09/14 03:26:44;;;;;;;4.30;1.58;;;13.40;99.90;;;;;;5053230;28;20476;-54
2023/09/14 03:29:10;;;;;;;3.78;1.67;;;13.40;99.90;;;;;;5052423;28;20086;-52
2023/09/14 03:31:36;;;;;;;6.22;1.83;;;13.40;99.90;;;;;;5053121;28;20028;-53
2023/09/14 03:34:04;;;;;;;4.72;1.63;;;13.30;99.90;;;;;;5071060;28;20039;-53
2023/09/14 03:36:30;;;;;;;6.05;1.63;;;13.30;99.90;;;;;;5053278;28;20078;-52
2023/09/14 03:38:55;;;;;;;5.53;1.90;;;13.40;99.90;;;;;;5052737;28;20318;-55
2023/09/14 03:41:26;;;;;;;4.40;1.60;;;13.40;99.90;;;;;;5053089;28;20036;-51
2023/09/14 03:43:52;;;;;;;3.50;1.65;;;13.50;99.90;;;;;;5052856;28;20523;-53
2023/09/14 03:46:18;;;;;;;6.25;1.77;;;13.50;99.90;;;;;;5052929;28;20036;-53
2023/09/14 03:48:44;;;;;;;5.00;1.73;;;13.50;99.90;;;;;;5035793;28;20115;-52
2023/09/14 03:51:10;;;;;;;8.75;2.25;;;13.40;99.90;;;;;;5070870;28;20104;-53
2023/09/14 03:53:35;;;;;;;4.93;1.50;;;13.40;99.90;;;;;;5052919;28;20032;-53
2023/09/14 03:56:02;;;;;;;4.88;1.60;;;13.30;99.90;;;;;;5053020;28;20028;-54
2023/09/14 03:58:31;;;;;;;4.43;1.33;;;13.20;99.90;;;;;;5052429;28;20029;-51
2023/09/14 04:00:56;;;;;;;3.65;1.77;;;13.10;99.90;;;;;;5052874;28;20028;-55
2023/09/14 04:03:23;;;;;;;5.70;1.75;;;13.00;99.90;;;;;;5052771;28;20404;-51
2023/09/14 04:05:48;;;;;;;5.15;1.80;;;13.00;99.90;;;;;;5052757;28;20025;-55
2023/09/14 04:08:14;;;;;;;6.13;1.88;;;12.90;99.90;;;;;;5070357;28;20453;-53
2023/09/14 04:10:40;;;;;;;4.50;1.60;;;12.90;99.90;;;;;;5070415;28;20469;-52
2023/09/14 04:13:39;;;;;;;3.38;1.60;;;12.80;99.90;;;;;;5052571;28;20492;-54
2023/09/14 04:16:08;;;;;;;5.85;1.70;;;12.80;99.90;;;;;;5001466;28;20500;-52
2023/09/14 04:18:38;;;;;;;10.02;1.90;;;12.80;99.90;;;;;;5052258;28;20043;-56
2023/09/14 04:21:04;;;;;;;4.93;1.90;;;12.80;99.90;;;;;;5052629;28;20028;-54
2023/09/14 04:23:30;;;;;;;7.25;1.85;;;12.80;99.90;;;;;;5052510;28;20029;-53
2023/09/14 04:25:58;;;;;;;4.47;1.70;;;12.70;99.90;;;;;;5052563;28;20076;-53
2023/09/14 04:28:24;;;;;;;5.70;2.33;;;12.70;99.90;;;;;;5070360;28;20388;-54
2023/09/14 04:30:52;;;;;;;5.65;1.65;;;12.70;99.90;;;;;;5054002;28;20036;-52
2023/09/14 04:33:18;;;;;;;4.40;1.80;;;12.70;99.90;;;;;;5056692;28;20024;-54
2023/09/14 04:35:45;;;;;;;6.75;1.75;;;12.70;99.90;;;;;;5074595;28;20027;-53
2023/09/14 04:38:12;;;;;;;4.13;1.48;;;12.70;99.90;;;;;;5056310;28;20054;-52
2023/09/14 04:40:42;;;;;;;6.75;2.22;;;12.70;99.90;;;;;;5056381;28;20052;-54
2023/09/14 04:43:08;;;;;;;;;;;12.70;99.90;;;;;;5057071;28;20028;-52
2023/09/14 04:45:34;;;;;;;5.90;1.60;;;12.70;99.90;;;;;;5056540;28;19954;-55
2023/09/14 04:48:00;;;;;;;5.07;2.00;;;12.70;99.90;;;;;;5056330;28;20025;-54
2023/09/14 04:50:27;;;;;;;5.35;2.00;;;12.70;99.90;;;;;;5074124;28;20492;-55
2023/09/14 04:52:53;;;;;;;4.25;1.95;;;12.80;99.90;;;;;;5056527;28;20081;-56
2023/09/14 04:55:19;;;;;;;5.80;2.30;;;12.80;99.90;;;;;;5056301;28;20028;-53
2023/09/14 04:57:45;;;;;;;7.57;2.42;;;12.90;99.90;;;;;;5056476;28;20036;-51
2023/09/14 05:00:12;;;;;;;6.22;1.80;;;12.90;99.90;;;;;;5055844;28;20032;-54
2023/09/14 05:02:38;;;;;;;6.85;1.95;;;12.90;99.90;;;;;;5056301;28;20073;-51
2023/09/14 05:05:06;;;;;;;6.03;1.75;;;12.90;99.90;;;;;;5056320;28;20523;-54
2023/09/14 05:07:32;;;;;;;4.32;1.90;;;13.00;99.90;;;;;;5056290;28;20032;-53
2023/09/14 05:09:58;;;;;;;7.28;2.10;;;13.00;99.90;;;;;;5055724;28;20032;-51
2023/09/14 05:12:24;;;;;;;4.55;1.70;;;12.90;99.90;;;;;;5074007;28;20024;-55
2023/09/14 05:14:49;;;;;;;5.47;2.00;;;12.90;99.90;;;;;;5056058;28;20021;-50
2023/09/14 05:17:15;;;;;;;5.30;1.98;;;12.90;99.90;;;;;;5055811;28;20028;-50
2023/09/14 05:19:42;;;;;;;6.30;2.20;;;12.90;99.90;;;;;;5055400;28;20370;-51
2023/09/14 05:22:11;;;;;;;10.38;2.85;;;12.90;99.90;;;;;;5055770;28;20037;-55
2023/09/14 05:24:40;;;;;;;;;;;12.90;99.90;;;;;;5056246;28;20036;-50
2023/09/14 05:27:06;;;;;;;6.43;2.00;;;12.90;99.90;;;;;;5055892;28;19985;-54
2023/09/14 05:29:32;;;;;;;5.40;2.00;;;12.90;99.90;;;;;;5055207;28;20504;-55
2023/09/14 05:31:57;;;;;;;6.40;2.05;;;12.90;99.90;;;;;;5073615;28;20052;-50
2023/09/14 05:34:24;;;;;;;5.32;2.05;;;12.90;99.90;;;;;;5055562;28;20032;-51
2023/09/14 05:36:50;;;;;;;4.75;2.00;;;12.90;99.90;;;;;;5055391;28;20498;-54
2023/09/14 05:39:17;;;;;;;9.55;2.20;;;13.00;99.90;;;;;;5054972;28;20107;-50
2023/09/14 05:41:43;;;;;;;7.18;1.85;;;12.90;99.90;;;;;;5055075;28;20501;-54
2023/09/14 05:44:10;;;;;;;6.97;2.28;;;13.00;99.90;;;;;;5055210;28;20040;-53
2023/09/14 05:46:39;;;;;;;4.32;2.03;;;13.00;99.90;;;;;;5055248;28;20031;-56
2023/09/14 05:49:05;;;;;;;;;;;13.10;99.90;;;;;;5055203;28;20063;-56
2023/09/14 05:51:31;;;;;;;7.60;1.95;;;13.10;99.90;;;;;;5055061;28;19955;-53
2023/09/14 05:53:58;;;;;;;5.53;2.28;;;13.10;99.90;;;;;;5055042;28;20028;-53
2023/09/14 05:56:25;;;;;;;6.15;2.60;;;13.20;99.90;;;;;;5055296;28;20024;-52
2023/09/14 05:58:51;;;;;;;5.40;1.83;;;13.20;99.90;;;;;;5054500;28;20028;-54
2023/09/14 06:01:16;;;;;;;4.90;2.10;;;13.20;99.90;;;;;;5054969;28;20120;-57
2023/09/14 06:03:42;;;;;;;7.25;2.33;;;13.30;99.90;;;;;;5054851;28;20111;-52
2023/09/14 06:06:08;;;;;;;7.20;2.10;;;13.30;99.90;;;;;;5055184;28;20067;-56
2023/09/14 06:08:33;;;;;;;5.15;2.25;;;13.40;99.90;;;;;;5054378;28;20025;-53
2023/09/14 06:11:01;;;;;;;8.70;2.53;;;13.40;99.90;;;;;;5055089;28;20400;-57
2023/09/14 06:13:28;;;;;;;6.43;1.77;;;13.50;99.90;;;;;;5054840;28;20051;-54
2023/09/14 06:15:54;;;;;;;5.28;1.80;;;13.60;99.90;;;;;;5072658;28;20028;-57
2023/09/14 06:18:20;;;;;;;4.10;2.20;;;13.70;99.90;;;;;;5072399;28;20473;-53
2023/09/14 06:20:46;;;;;;;5.93;1.95;;;13.70;99.90;;;;;;5072489;28;20024;-57
2023/09/14 06:23:11;;;;;;;4.55;2.10;;;13.70;99.90;;;;;;5072526;28;20090;-53
2023/09/14 06:25:37;;;;;;;11.38;2.22;;;13.70;99.90;;;;;;5072514;28;20090;-57
2023/09/14 06:28:03;;;;;;;8.15;2.50;;;13.70;99.90;;;;;;5072422;28;20060;-55
2023/09/14 06:30:29;;;;;;;6.80;2.40;;;13.90;99.90;;;;;;5072199;28;20378;-51
2023/09/14 06:32:55;;;;;;;5.75;1.95;;;13.90;99.90;;;;;;5072334;28;20499;-54
2023/09/14 06:35:20;;;;;;;8.00;2.10;;;14.00;99.90;;;;;;5072312;28;20103;-51
2023/09/14 06:37:46;;;;;;;5.70;1.98;;;14.10;99.90;;;;;;5072282;28;20409;-52
2023/09/14 06:40:12;;;;;;;9.40;2.30;;;14.20;99.90;;;;;;5071941;28;20115;-56
2023/09/14 06:42:37;;;;;;;4.95;2.40;;;14.30;99.90;;;;;;5072464;28;20261;-54
2023/09/14 06:45:06;;;;;;;7.03;2.60;;;14.30;99.90;;;;;;5072203;28;20032;-53
2023/09/14 06:47:32;;;;;;;6.30;2.58;;;14.40;99.90;;;;;;5072129;28;20035;-52
2023/09/14 06:49:57;;;;;;;6.32;2.17;;;14.50;99.90;;;;;;5071412;28;20044;-53
2023/09/14 06:52:23;;;;;;;6.97;2.22;;;14.50;99.90;;;;;;5072020;28;20039;-53
2023/09/14 06:54:49;;;;;;;6.75;2.42;;;14.60;99.90;;;;;;5072090;28;20060;-51
2023/09/14 06:57:14;;;;;;;8.15;2.58;;;14.70;99.90;;;;;;5071888;28;20093;-53
2023/09/14 06:59:40;;;;;;;3.83;2.08;;;14.70;99.90;;;;;;5071538;28;20029;-51
2023/09/14 07:02:05;;;;;;;6.30;2.38;;;14.80;99.90;;;;;;5072471;28;20029;-51
2023/09/14 07:04:34;;;;;;;6.35;2.35;;;14.90;99.90;;;;;;5072450;28;20039;-51
2023/09/14 07:07:00;;;;;;;7.00;2.40;;;15.00;99.90;;;;;;5072361;28;20389;-52
2023/09/14 07:09:26;;;;;;;10.38;2.95;;;15.00;99.90;;;;;;5071451;28;20025;-52
2023/09/14 07:11:52;;;;;;;6.15;2.53;;;15.10;99.90;;;;;;5072543;28;20058;-51
2023/09/14 07:14:17;;;;;;;9.38;3.70;;;15.20;99.90;;;;;;5072416;28;20556;-50
2023/09/14 07:16:43;;;;;;;12.15;3.33;;;15.20;99.90;;;;;;5073313;28;20016;-52
2023/09/14 07:19:09;;;;;;;11.73;2.55;;;15.30;99.90;;;;;;5073519;28;20405;-53
2023/09/14 07:21:37;;;;;;;6.22;2.33;;;15.30;99.90;;;;;;5074360;28;20484;-55
2023/09/14 07:24:06;;;;;;;6.00;2.95;;;15.30;99.90;;;;;;5074012;28;20040;-52
2023/09/14 07:26:34;;;;;;;6.32;2.45;;;15.30;99.90;;;;;;5073811;28;20045;-52
2023/09/14 07:29:00;;;;;;;5.57;2.83;;;15.30;99.90;;;;;;5070635;28;20028;-52
2023/09/14 07:31:26;;;;;;;6.32;2.35;;;15.30;99.90;;;;;;5053275;28;20504;-52
2023/09/14 07:33:52;;;;;;;6.72;2.60;;;15.30;99.90;;;;;;5071105;28;20067;-53
2023/09/14 07:36:18;;;;;;;6.00;2.30;;;15.40;99.90;;;;;;5071252;28;20121;-52
2023/09/14 07:38:45;;;;;;;7.68;2.60;;;15.40;99.90;;;;;;5070524;28;20024;-52
2023/09/14 07:41:12;;;;;;;7.72;3.05;;;15.30;99.90;;;;;;5053245;28;20397;-52
2023/09/14 07:43:38;;;;;;;6.70;2.95;;;15.40;99.90;;;;;;5071018;28;20028;-52
2023/09/14 07:46:03;;;;;;;8.10;3.00;;;15.50;99.90;;;;;;5071241;28;20104;-51
2023/09/14 07:48:29;;;;;;;9.25;2.95;;;15.60;99.90;;;;;;5052392;28;20028;-54
2023/09/14 07:50:55;;;;;;;6.30;3.13;;;15.80;99.90;;;;;;5071086;28;20028;-52
2023/09/14 07:53:20;;;;;;;7.97;3.47;;;15.80;99.90;;;;;;5071097;28;20438;-53
2023/09/14 07:55:52;;;;;;;6.22;3.33;;;15.90;99.90;;;;;;5070930;28;20500;-52
2023/09/14 07:58:21;;;;;;;8.73;3.30;;;15.90;99.90;;;;;;5070720;28;20455;-52
2023/09/14 08:00:48;;;;;;;7.32;3.42;;;16.00;99.90;;;;;;5070738;28;20383;-53
2023/09/14 08:03:14;;;;;;;8.50;3.95;;;16.10;99.90;;;;;;5070811;28;20102;-54
2023/09/14 08:05:41;;;;;;;8.65;3.35;;;16.20;99.90;;;;;;5070408;28;20060;-52
2023/09/14 08:08:08;;;;;;;9.13;3.42;;;16.30;99.90;;;;;;5070562;28;20115;-55
2023/09/14 08:10:34;;;;;;;7.68;3.35;;;16.50;99.90;;;;;;5070536;28;20039;-54
2023/09/14 08:13:00;;;;;;;7.45;3.67;;;16.50;99.90;;;;;;5071124;28;20179;-53
2023/09/14 08:15:26;;;;;;;5.65;3.17;;;16.60;99.90;;;;;;5070861;28;20037;-55
2023/09/14 08:17:52;;;;;;;16.33;6.25;;;16.80;99.90;;;;;;5070773;28;20039;-56
2023/09/14 08:20:18;;;;;;;8.93;3.83;;;16.90;99.90;;;;;;5070349;28;20036;-56
2023/09/14 08:22:44;;;;;;;7.97;3.30;;;17.00;99.90;;;;;;5070695;28;20028;-52
2023/09/14 08:25:11;;;;;;;6.85;3.33;;;16.90;99.90;;;;;;5070956;28;20511;-56
2023/09/14 08:27:38;;;;;;;6.85;3.15;;;17.20;99.90;;;;;;5070767;28;20039;-55
2023/09/14 08:30:06;;;;;;;5.15;2.30;;;17.20;99.90;;;;;;5070371;28;20404;-55
2023/09/14 08:32:32;;;;;;;7.47;2.80;;;17.30;99.90;;;;;;5070925;28;20067;-55
2023/09/14 08:35:01;;;;;;;7.18;2.92;;;17.20;99.90;;;;;;5070858;28;20062;-56
2023/09/14 08:37:26;;;;;;;7.50;2.90;;;17.30;99.90;;;;;;5070562;28;20024;-54
2023/09/14 08:39:52;;;;;;;11.85;2.83;;;17.20;99.90;;;;;;5070268;28;20082;-56
2023/09/14 08:42:20;;;;;;;6.82;2.65;;;17.40;99.90;;;;;;5070669;28;20123;-53
2023/09/14 08:44:48;;;;;;;6.05;2.72;;;17.60;99.90;;;;;;5070625;28;20036;-52
2023/09/14 08:47:15;;;;;;;9.80;2.95;;;17.60;99.90;;;;;;5070349;28;20029;-55
2023/09/14 08:49:43;;;;;;;7.30;2.70;;;17.70;99.90;;;;;;5069873;28;20035;-52
2023/09/14 08:52:11;;;;;;;8.27;2.72;;;17.90;99.90;;;;;;5070363;28;20128;-54
2023/09/14 08:54:36;;;;;;;7.80;2.65;;;18.10;99.90;;;;;;5070508;28;20025;-53
2023/09/14 08:57:06;;;;;;;4.57;2.40;;;18.00;99.90;;;;;;5070374;28;20446;-52
2023/09/14 08:59:34;;;;;;;6.60;2.72;;;18.10;99.90;;;;;;5069827;28;20108;-56
2023/09/14 09:02:01;;;;;;;7.55;2.67;;;18.30;99.90;;;;;;5070177;28;20043;-53
2023/09/14 09:04:27;;;;;;;5.10;2.50;;;18.20;99.90;;;;;;5070129;28;20111;-55
2023/09/14 09:06:54;;;;;;;5.63;1.95;;;18.20;99.90;;;;;;5070218;28;20119;-52
2023/09/14 09:09:21;;;;;;;7.03;2.67;;;18.20;99.90;;;;;;5069698;28;20039;-51
2023/09/14 09:11:47;;;;;;;4.38;1.80;;;18.30;99.90;;;;;;5052402;28;20401;-52
2023/09/14 09:14:14;;;;;;;4.18;2.05;;;18.50;99.90;;;;;;5070344;28;20028;-52
2023/09/14 09:16:39;;;;;;;7.32;2.45;;;18.70;99.90;;;;;;5070119;28;20032;-55
2023/09/14 09:19:07;;;;;;;4.18;2.00;;;18.80;99.90;;;;;;5072813;28;20489;-54
2023/09/14 09:21:34;;;;;;;4.63;2.45;;;18.80;99.90;;;;;;5073745;28;20565;-53
2023/09/14 09:24:03;;;;;;;4.75;1.98;;;18.90;99.90;;;;;;5073640;28;20126;-55
2023/09/14 09:26:36;;;;;;;4.32;1.90;;;19.10;99.90;;;;;;5073957;28;20151;-54
2023/09/14 09:29:19;;;;;;;7.18;2.40;;;19.10;99.90;;;;;;5072978;28;20032;-54
2023/09/14 09:31:47;;;;;;;4.57;2.20;;;19.30;99.90;;;;;;5073483;28;20387;-51
2023/09/14 09:34:13;;;;;;;5.10;2.42;;;19.40;99.90;;;;;;5073510;28;20031;-55
2023/09/14 09:36:39;;;;;;;5.80;2.40;;;19.40;99.90;;;;;;5073563;28;20388;-52
2023/09/14 09:39:06;;;;;;;7.30;1.95;;;19.30;99.90;;;;;;5072975;28;20036;-52
2023/09/14 09:41:35;;;;;;;6.15;2.13;;;19.00;99.90;;;;;;5073403;28;20035;-54
2023/09/14 09:44:07;;;;;;;;;;;18.80;99.90;;;;;;5073902;28;20055;-51
2023/09/14 09:46:37;;;;;;;5.03;2.00;;;18.70;99.90;;;;;;5073292;28;19909;-53
2023/09/14 09:49:14;;;;;;;3.28;1.77;;;18.70;99.90;;;;;;5072702;28;20039;-52
2023/09/14 09:51:40;;;;;;;4.60;1.92;;;18.50;99.90;;;;;;5073254;28;20036;-55
2023/09/14 09:54:06;;;;;;;3.25;1.65;;;18.50;99.90;;;;;;5073164;28;20032;-52
2023/09/14 09:56:36;;;;;;;4.45;1.90;;;18.60;99.90;;;;;;5073006;28;20381;-55
2023/09/14 09:59:04;;;;;;;5.93;2.17;;;18.80;99.90;;;;;;5072648;28;20039;-55
2023/09/14 10:01:30;;;;;;;4.80;1.88;;;19.00;99.90;;;;;;5073129;28;20439;-53
2023/09/14 10:03:59;;;;;;;3.53;1.75;;;19.20;99.90;;;;;;5072994;28;20078;-56
2023/09/14 10:06:25;;;;;;;7.80;3.63;;;19.40;99.90;;;;;;5073002;28;20028;-55
2023/09/14 10:08:56;;;;;;;7.15;3.25;;;19.60;99.90;;;;;;5072324;28;20043;-53
2023/09/14 10:11:24;;;;;;;8.13;2.97;;;20.00;99.90;;;;;;5072832;28;20094;-55
2023/09/14 10:13:49;;;;;;;6.30;2.13;;;20.00;99.90;;;;;;5072898;28;20031;-50
2023/09/14 10:16:21;;;;;;;4.32;1.60;;;20.10;99.90;;;;;;5072693;28;20028;-54
2023/09/14 10:18:48;;;;;;;6.10;1.75;;;20.10;99.90;;;;;;5072041;28;20032;-54
2023/09/14 10:21:14;;;;;;;4.70;2.13;;;20.20;99.90;;;;;;5072810;28;20028;-55
2023/09/14 10:23:41;;;;;;;5.35;1.90;;;20.30;99.90;;;;;;5072550;28;20067;-55
2023/09/14 10:26:07;;;;;;;3.25;1.58;;;20.40;99.90;;;;;;5072460;28;20064;-54
2023/09/14 10:28:33;;;;;;;5.53;1.83;;;20.50;99.90;;;;;;5071821;28;20067;-54
2023/09/14 10:30:59;;;;;;;3.72;1.52;;;20.70;99.90;;;;;;5072371;28;20056;-55
2023/09/14 10:33:26;;;;;;;5.35;2.33;;;20.80;99.90;;;;;;5072381;28;20385;-50
2023/09/14 10:35:55;;;;;;;3.83;1.55;;;20.90;99.90;;;;;;5072543;28;20071;-54
2023/09/14 10:38:25;;;;;;;5.15;1.67;;;20.80;99.90;;;;;;5072032;28;20409;-54
2023/09/14 10:40:52;;;;;;;5.80;1.95;;;20.60;99.90;;;;;;5072207;28;20366;-51
2023/09/14 10:43:18;;;;;;;4.15;1.67;;;20.60;99.90;;;;;;5072173;28;20485;-52
2023/09/14 10:45:46;;;;;;;3.08;1.42;;;20.50;99.90;;;;;;5072305;28;20040;-53
2023/09/14 10:48:17;;;;;;;6.60;1.65;;;20.30;99.90;;;;;;5053884;28;20059;-56
2023/09/14 10:50:42;;;;;;;3.72;1.35;;;20.40;99.90;;;;;;5071967;28;20044;-56
2023/09/14 10:53:08;;;;;;;3.85;1.83;;;20.60;99.90;;;;;;5072174;28;20028;-56
2023/09/14 10:55:35;;;;;;;5.13;2.15;;;20.80;99.90;;;;;;5072199;28;20049;-56
2023/09/14 10:58:02;;;;;;;4.35;1.70;;;20.80;99.90;;;;;;5071864;28;20111;-54
2023/09/14 11:00:36;;;;;;;3.47;1.70;;;20.80;99.90;;;;;;5053833;28;20493;-55
2023/09/14 11:03:02;;;;;;;3.90;1.80;;;20.90;99.90;;;;;;5072324;28;20526;-55
2023/09/14 11:05:43;;;;;;;6.53;1.98;;;21.00;99.90;;;;;;5071829;28;20039;-53
2023/09/14 11:08:09;;;;;;;4.38;1.90;;;21.10;99.90;;;;;;5071464;28;20036;-55
2023/09/14 11:10:37;;;;;;;4.38;1.58;;;21.20;99.90;;;;;;5071430;28;20029;-54
2023/09/14 11:13:21;;;;;;;5.68;1.67;;;21.20;99.90;;;;;;5071610;28;20040;-55
2023/09/14 11:15:53;;;;;;;4.28;1.60;;;21.10;98.60;;;;;;5071493;28;20064;-53
2023/09/14 11:18:20;;;;;;;5.85;1.83;;;21.20;97.60;;;;;;5071223;28;20020;-54
2023/09/14 11:20:46;;;;;;;5.30;1.80;;;21.20;97.30;;;;;;5071475;28;20032;-56
2023/09/14 11:23:12;;;;;;;4.55;1.73;;;21.00;99.70;;;;;;5071479;28;20032;-55
2023/09/14 11:25:42;;;;;;;3.63;1.50;;;20.80;99.40;;;;;;5071769;28;20107;-55
2023/09/14 11:28:18;;;;;;;2.88;1.42;;;20.60;99.10;;;;;;5071159;28;20021;-53
2023/09/14 11:30:46;;;;;;;3.22;1.88;;;20.50;99.80;;;;;;5071301;28;20024;-56
2023/09/14 11:33:13;;;;;;;3.95;2.20;;;20.50;99.90;;;;;;5071314;28;20425;-56
2023/09/14 11:35:40;;;;;;;3.95;2.00;;;20.50;99.90;;;;;;5071376;28;20028;-53
2023/09/14 11:38:18;;;;;;;6.25;2.30;;;20.40;99.90;;;;;;5070947;28;20039;-53
2023/09/14 11:40:43;;;;;;;3.33;2.00;;;20.50;99.90;;;;;;5070429;28;20039;-54
2023/09/14 11:43:36;;;;;;;3.88;2.17;;;20.60;99.90;;;;;;5071311;28;20028;-53
2023/09/14 11:46:04;;;;;;;3.22;2.05;;;20.60;99.90;;;;;;5071425;28;20028;-54
2023/09/14 11:48:35;;;;;;;3.83;2.03;;;20.50;99.90;;;;;;5070880;28;20460;-51
2023/09/14 11:51:04;;;;;;;5.18;2.75;;;20.30;99.90;;;;;;5071317;28;20978;-54
2023/09/14 11:53:37;;;;;;;4.78;2.10;;;20.20;99.90;;;;;;5071357;28;20070;-52
2023/09/14 11:56:03;;;;;;;4.10;2.30;;;20.10;99.90;;;;;;5071654;28;20077;-54
2023/09/14 11:58:33;;;;;;;4.13;1.92;;;20.10;99.90;;;;;;5070872;28;20036;-52
2023/09/14 12:00:59;;;;;;;4.60;1.88;;;20.20;99.90;;;;;;5071043;28;20051;-55
2023/09/14 12:03:25;;;;;;;3.25;2.15;;;20.50;99.90;;;;;;5071103;28;20025;-52
2023/09/14 12:05:55;;;;;;;3.95;1.92;;;20.70;99.90;;;;;;5071359;28;20039;-54
2023/09/14 12:08:21;;;;;;;4.75;2.80;;;20.60;99.90;;;;;;5070735;28;20111;-51
2023/09/14 12:10:52;;;;;;;3.90;1.92;;;20.50;99.90;;;;;;5071021;28;20564;-55
2023/09/14 12:13:18;;;;;;;4.10;2.15;;;20.40;99.90;;;;;;5071300;28;20036;-54
2023/09/14 12:15:45;;;;;;;3.40;1.90;;;20.40;99.50;;;;;;5053548;28;20028;-51
2023/09/14 12:18:12;;;;;;;7.35;2.17;;;20.20;99.90;;;;;;5071192;28;20075;-54
2023/09/14 12:20:43;;;;;;;4.07;2.00;;;20.20;99.90;;;;;;5072205;28;20036;-51
2023/09/14 12:23:11;;;;;;;3.00;1.73;;;20.10;99.90;;;;;;5073120;28;20419;-54
2023/09/14 12:25:38;;;;;;;4.00;2.00;;;20.00;99.90;;;;;;5054896;28;20033;-51
2023/09/14 12:28:07;;;;;;;3.28;1.80;;;19.90;99.90;;;;;;5071350;28;20492;-50
2023/09/14 12:30:34;;;;;;;2.72;1.77;;;19.90;99.90;;;;;;5071827;28;20039;-55
2023/09/14 12:33:02;;;;;;;3.88;2.03;;;19.80;99.90;;;;;;5070293;28;20035;-54
2023/09/14 12:35:29;;;;;;;1.95;1.38;;;19.80;99.90;;;;;;5070484;28;20039;-54
2023/09/14 12:38:03;;;;;;;4.40;2.05;;;19.80;99.90;;;;;;5070283;28;20028;-56
2023/09/14 12:40:34;;;;;;;3.65;1.65;;;19.80;99.90;;;;;;5070269;28;20036;-51
2023/09/14 12:43:02;;;;;;;3.33;1.50;;;20.00;99.70;;;;;;5070371;28;20479;-54
2023/09/14 12:45:28;;;;;;;3.63;1.60;;;20.00;99.30;;;;;;5070188;28;20040;-55
2023/09/14 12:47:54;;;;;;;3.10;1.50;;;20.00;99.90;;;;;;5070389;28;20198;-54